Time;durP1;ratioP1;P1;durP2;ratioP2;P2;SDS_P1;SDS_P2;PMS_P1;PMS_P2;Temp;Humidity;BMP_temperature;BMP_pressure;BME280_temperature;BME280_humidity;BME280_pressure;Samples;Min_cycle;Max_cycle;Signal;HPM_P1;HPM_P2
2022/09/08 00:01:48;;;;;;;1.85;0.60;;;15.90;99.90;;;;;;5053661;28;20404;-66
2022/09/08 00:04:14;;;;;;;1.33;0.50;;;16.00;99.90;;;;;;5053593;28;20075;-66
2022/09/08 00:06:40;;;;;;;0.80;0.50;;;16.10;99.90;;;;;;5053743;28;20446;-66
2022/09/08 00:09:06;;;;;;;0.60;0.60;;;16.00;99.90;;;;;;5053875;28;20033;-66
2022/09/08 00:11:34;;;;;;;0.88;0.60;;;16.00;99.90;;;;;;5053892;28;20045;-66
2022/09/08 00:14:05;;;;;;;2.35;0.73;;;16.00;99.90;;;;;;5053914;28;20557;-66
2022/09/08 00:16:31;;;;;;;0.85;0.60;;;15.90;99.90;;;;;;5053696;28;20523;-67
2022/09/08 00:18:57;;;;;;;2.70;0.60;;;15.90;99.90;;;;;;5053750;28;20033;-66
2022/09/08 00:21:24;;;;;;;1.33;0.60;;;15.80;99.90;;;;;;5052353;28;20049;-67
2022/09/08 00:23:51;;;;;;;2.05;0.70;;;15.90;99.90;;;;;;5056717;28;20392;-67
2022/09/08 00:26:18;;;;;;;3.53;1.00;;;15.90;99.90;;;;;;5057459;28;20595;-66
2022/09/08 00:28:44;;;;;;;1.27;0.50;;;15.90;99.90;;;;;;5057494;28;20051;-66
2022/09/08 00:31:10;;;;;;;2.80;0.50;;;15.90;99.90;;;;;;5056014;28;20098;-70
2022/09/08 00:33:36;;;;;;;1.38;0.70;;;15.80;99.90;;;;;;5056809;28;20041;-66
2022/09/08 00:36:03;;;;;;;1.95;0.50;;;15.70;99.90;;;;;;5056988;28;20084;-66
2022/09/08 00:38:30;;;;;;;3.40;0.40;;;15.70;99.90;;;;;;5056022;28;20036;-66
2022/09/08 00:40:57;;;;;;;1.85;0.70;;;15.60;99.90;;;;;;5056751;28;20047;-71
2022/09/08 00:43:37;;;;;;;3.63;0.80;;;15.70;99.90;;;;;;5057278;28;20068;-67
2022/09/08 00:46:09;;;;;;;2.47;0.85;;;15.70;99.90;;;;;;5055803;28;20439;-67
2022/09/08 00:48:40;;;;;;;2.22;0.55;;;15.70;99.90;;;;;;5055692;28;20397;-67
2022/09/08 00:51:07;;;;;;;1.27;0.70;;;15.70;99.90;;;;;;5055669;28;20041;-67
2022/09/08 00:53:37;;;;;;;1.83;0.63;;;15.70;99.90;;;;;;5056776;28;20079;-66
2022/09/08 00:56:05;;;;;;;3.03;0.70;;;15.70;99.90;;;;;;5056766;28;20048;-68
2022/09/08 00:58:35;;;;;;;1.25;0.60;;;15.60;99.90;;;;;;5056884;28;20090;-70
2022/09/08 01:01:01;;;;;;;2.10;0.52;;;15.60;99.90;;;;;;5056818;28;20037;-67
2022/09/08 01:03:28;;;;;;;1.20;0.50;;;15.50;99.90;;;;;;5072171;28;20044;-66
2022/09/08 01:06:17;;;;;;;0.82;0.60;;;15.60;99.90;;;;;;5056707;28;20044;-67
2022/09/08 01:14:53;;;;;;;1.23;0.60;;;15.50;99.90;;;;;;5056592;28;20060;-67
2022/09/08 01:17:22;;;;;;;3.35;0.70;;;15.50;99.90;;;;;;5056504;28;20048;-67
2022/09/08 01:19:49;;;;;;;0.80;0.43;;;15.50;99.90;;;;;;5056413;28;20120;-67
2022/09/08 01:22:27;;;;;;;1.67;0.75;;;15.40;99.90;;;;;;5057071;28;20086;-67
2022/09/08 01:24:56;;;;;;;5.95;0.90;;;15.40;99.90;;;;;;5055227;28;20128;-67
2022/09/08 01:27:29;;;;;;;1.40;0.50;;;15.50;99.90;;;;;;5055118;28;20029;-67
2022/09/08 01:30:00;;;;;;;4.95;0.80;;;15.40;99.90;;;;;;5056322;28;20114;-67
2022/09/08 01:32:32;;;;;;;1.05;0.60;;;15.40;99.90;;;;;;5056166;28;20065;-67
2022/09/08 01:34:58;;;;;;;1.90;0.60;;;15.40;99.90;;;;;;5056150;28;20049;-71
2022/09/08 01:37:24;;;;;;;1.52;0.60;;;15.30;99.90;;;;;;5055887;28;20148;-67
2022/09/08 01:39:50;;;;;;;1.75;0.45;;;15.30;99.90;;;;;;5056128;28;20124;-68
2022/09/08 01:42:16;;;;;;;2.08;0.73;;;15.30;99.90;;;;;;5055830;28;20044;-70
2022/09/08 01:44:43;;;;;;;1.73;0.60;;;15.40;99.90;;;;;;5055724;28;20032;-67
2022/09/08 01:47:10;;;;;;;1.58;0.70;;;15.40;99.90;;;;;;5055927;28;20071;-66
2022/09/08 01:49:36;;;;;;;3.50;0.77;;;15.30;99.90;;;;;;5054618;28;20427;-67
2022/09/08 01:52:02;;;;;;;0.70;0.50;;;15.40;99.90;;;;;;5055949;28;20504;-70
2022/09/08 01:54:28;;;;;;;1.02;0.63;;;15.30;99.90;;;;;;5055901;28;20082;-66
2022/09/08 01:56:55;;;;;;;1.48;0.73;;;15.40;99.90;;;;;;5055842;28;20049;-69
2022/09/08 01:59:21;;;;;;;3.55;0.60;;;15.30;99.90;;;;;;5055659;28;20029;-66
2022/09/08 02:01:47;;;;;;;1.73;0.73;;;15.40;99.90;;;;;;5055640;28;20511;-66
2022/09/08 02:04:13;;;;;;;1.00;0.60;;;15.30;99.90;;;;;;5055609;28;20036;-70
2022/09/08 02:06:39;;;;;;;1.80;0.60;;;15.20;99.90;;;;;;5055761;28;20041;-67
2022/09/08 02:09:05;;;;;;;2.45;0.70;;;15.20;99.90;;;;;;5055679;28;20051;-66
2022/09/08 02:11:31;;;;;;;0.77;0.50;;;15.20;99.90;;;;;;5055554;28;20094;-66
2022/09/08 02:13:58;;;;;;;1.55;0.68;;;15.20;99.90;;;;;;5055172;28;20091;-70
2022/09/08 02:16:25;;;;;;;1.02;0.60;;;15.20;99.90;;;;;;5055126;28;20059;-67
2022/09/08 02:18:53;;;;;;;1.67;0.60;;;15.10;99.90;;;;;;5055098;28;20040;-68
2022/09/08 02:21:20;;;;;;;0.68;0.50;;;15.20;99.90;;;;;;5055416;28;20213;-67
2022/09/08 02:23:48;;;;;;;1.08;0.50;;;15.20;99.90;;;;;;5070610;28;20079;-67
2022/09/08 02:26:28;;;;;;;4.65;0.95;;;15.20;99.90;;;;;;5055151;28;20381;-66
2022/09/08 02:28:54;;;;;;;2.72;0.75;;;15.10;99.90;;;;;;5055219;28;20072;-66
2022/09/08 02:31:22;;;;;;;1.45;1.17;;;15.10;99.90;;;;;;5055131;28;20041;-66
2022/09/08 02:33:49;;;;;;;1.15;0.70;;;15.10;99.90;;;;;;5053833;28;20554;-70
2022/09/08 02:36:15;;;;;;;2.15;0.60;;;15.00;99.90;;;;;;5054924;28;20396;-67
2022/09/08 02:38:41;;;;;;;1.08;0.60;;;15.10;99.90;;;;;;5053706;28;20037;-66
2022/09/08 02:41:07;;;;;;;1.98;0.85;;;15.10;99.90;;;;;;5054753;28;20033;-66
2022/09/08 02:43:35;;;;;;;5.38;1.23;;;14.90;99.90;;;;;;5054832;28;20515;-66
2022/09/08 02:46:09;;;;;;;1.58;0.57;;;14.90;99.90;;;;;;5054260;28;20384;-67
2022/09/08 02:48:35;;;;;;;2.08;0.60;;;14.70;99.90;;;;;;5053343;28;20029;-67
2022/09/08 02:51:03;;;;;;;0.77;0.63;;;14.50;99.90;;;;;;5054770;28;20072;-70
2022/09/08 02:53:30;;;;;;;2.42;0.93;;;14.40;99.90;;;;;;5053326;28;20076;-66
2022/09/08 02:55:57;;;;;;;1.15;0.50;;;14.30;99.90;;;;;;5054636;28;20048;-70
2022/09/08 02:58:22;;;;;;;1.60;0.50;;;14.40;99.90;;;;;;5053378;28;20036;-69
2022/09/08 03:00:48;;;;;;;1.48;0.82;;;14.30;99.90;;;;;;5054588;28;20436;-66
2022/09/08 03:03:15;;;;;;;0.90;0.70;;;14.20;99.90;;;;;;5054362;28;20045;-67
2022/09/08 03:05:41;;;;;;;2.25;0.90;;;14.10;99.90;;;;;;5054400;28;20496;-66
2022/09/08 03:08:08;;;;;;;1.98;0.60;;;14.20;99.90;;;;;;5054205;28;20068;-66
2022/09/08 03:10:35;;;;;;;1.52;0.60;;;14.20;99.90;;;;;;5052920;28;20048;-67
2022/09/08 03:13:01;;;;;;;0.57;0.40;;;14.20;99.90;;;;;;5054359;28;20377;-66
2022/09/08 03:15:29;;;;;;;1.20;0.60;;;14.30;99.90;;;;;;5054209;28;20032;-70
2022/09/08 03:17:55;;;;;;;2.38;0.70;;;14.50;99.90;;;;;;5052987;28;20037;-70
2022/09/08 03:20:22;;;;;;;1.92;0.50;;;14.60;99.90;;;;;;5054260;28;20480;-70
2022/09/08 03:22:48;;;;;;;2.30;0.90;;;14.70;99.90;;;;;;5054078;28;20049;-66
2022/09/08 03:25:16;;;;;;;6.05;0.98;;;14.60;99.90;;;;;;5054232;28;20070;-70
2022/09/08 03:27:41;;;;;;;2.50;0.60;;;14.70;99.90;;;;;;5054303;28;20041;-68
2022/09/08 03:30:13;;;;;;;3.25;0.63;;;14.60;99.90;;;;;;5054135;28;20396;-67
2022/09/08 03:32:41;;;;;;;1.67;0.90;;;14.60;99.90;;;;;;5054173;28;20028;-70
2022/09/08 03:35:08;;;;;;;2.00;0.40;;;14.50;99.90;;;;;;5053914;28;20045;-66
2022/09/08 03:37:35;;;;;;;3.38;0.70;;;14.50;99.90;;;;;;5036663;28;20049;-66
2022/09/08 03:40:04;;;;;;;1.40;0.65;;;14.50;99.90;;;;;;5033591;28;20037;-66
2022/09/08 03:42:35;;;;;;;4.28;0.60;;;14.30;99.90;;;;;;5033578;28;20037;-66
2022/09/08 03:45:05;;;;;;;4.53;0.95;;;14.20;99.90;;;;;;5033425;28;20037;-67
2022/09/08 03:47:32;;;;;;;1.52;0.73;;;14.10;99.90;;;;;;5033891;28;20488;-66
2022/09/08 03:49:59;;;;;;;1.25;0.82;;;14.10;99.90;;;;;;5033918;28;20554;-66
2022/09/08 03:52:25;;;;;;;1.50;0.90;;;14.10;99.90;;;;;;5034014;28;20087;-66
2022/09/08 03:54:51;;;;;;;1.98;0.85;;;14.10;99.90;;;;;;5033945;28;20136;-66
2022/09/08 03:57:21;;;;;;;2.28;0.70;;;14.10;99.90;;;;;;5034348;28;20560;-69
2022/09/08 03:59:49;;;;;;;1.45;0.70;;;13.90;99.90;;;;;;5037975;28;20041;-66
2022/09/08 04:02:16;;;;;;;1.60;0.65;;;14.00;99.90;;;;;;5037677;28;20096;-66
2022/09/08 04:04:42;;;;;;;1.23;0.60;;;13.80;99.90;;;;;;5037797;28;20509;-68
2022/09/08 04:07:09;;;;;;;0.68;0.60;;;13.80;99.90;;;;;;5037627;28;20037;-66
2022/09/08 04:09:36;;;;;;;4.40;0.70;;;13.70;99.90;;;;;;5037575;28;20382;-69
2022/09/08 04:12:03;;;;;;;2.40;0.60;;;13.70;99.90;;;;;;5053077;28;20045;-67
2022/09/08 04:14:30;;;;;;;1.73;0.60;;;13.70;99.90;;;;;;5037447;28;20045;-66
2022/09/08 04:16:56;;;;;;;1.42;0.70;;;13.70;99.90;;;;;;5037216;28;20408;-70
2022/09/08 04:19:22;;;;;;;0.98;0.50;;;13.60;99.90;;;;;;5052733;28;20041;-66
2022/09/08 04:21:49;;;;;;;0.82;0.60;;;13.60;99.90;;;;;;5039765;28;20037;-66
2022/09/08 04:24:15;;;;;;;0.98;0.50;;;13.50;99.90;;;;;;5057333;28;20380;-66
2022/09/08 04:26:41;;;;;;;4.97;1.38;;;13.50;99.90;;;;;;5057299;28;20051;-66
2022/09/08 04:29:07;;;;;;;3.33;0.88;;;13.40;99.90;;;;;;5057163;28;20071;-66
2022/09/08 04:31:35;;;;;;;1.95;0.90;;;13.40;99.90;;;;;;5056734;28;20041;-66
2022/09/08 04:34:02;;;;;;;2.97;0.98;;;13.20;99.90;;;;;;5056768;28;20098;-66
2022/09/08 04:36:29;;;;;;;2.95;0.70;;;13.20;99.90;;;;;;5056452;28;20052;-65
2022/09/08 04:38:56;;;;;;;1.13;0.70;;;13.20;99.90;;;;;;5056964;28;20453;-70
2022/09/08 04:41:22;;;;;;;4.68;0.90;;;13.30;99.90;;;;;;5056842;28;20048;-66
2022/09/08 04:43:48;;;;;;;1.25;0.60;;;13.30;99.90;;;;;;5056698;28;20049;-65
2022/09/08 04:46:16;;;;;;;4.47;0.88;;;13.50;99.90;;;;;;5055402;28;20370;-66
2022/09/08 04:48:42;;;;;;;3.85;0.93;;;13.50;99.90;;;;;;5056524;28;20127;-65
2022/09/08 04:51:17;;;;;;;1.90;0.80;;;13.60;99.90;;;;;;5056419;28;20037;-66
2022/09/08 04:53:43;;;;;;;1.73;0.60;;;13.70;99.90;;;;;;5054135;28;20044;-65
2022/09/08 04:56:11;;;;;;;2.15;0.80;;;13.50;99.90;;;;;;5056591;28;20044;-66
2022/09/08 04:58:39;;;;;;;3.40;1.00;;;13.30;99.90;;;;;;5054990;28;20579;-65
2022/09/08 05:01:12;;;;;;;1.55;0.85;;;13.20;99.90;;;;;;5056404;28;20535;-65
2022/09/08 05:03:39;;;;;;;0.98;0.57;;;13.20;99.90;;;;;;5056410;28;20110;-65
2022/09/08 05:06:14;;;;;;;1.42;0.80;;;13.20;99.90;;;;;;5055370;28;20488;-66
2022/09/08 05:08:46;;;;;;;3.22;0.95;;;13.20;99.90;;;;;;5055208;28;20075;-65
2022/09/08 05:11:13;;;;;;;1.38;0.95;;;13.30;99.90;;;;;;5055375;28;20045;-65
2022/09/08 05:13:39;;;;;;;3.85;0.80;;;13.20;99.90;;;;;;5055437;28;20037;-65
2022/09/08 05:16:11;;;;;;;2.10;0.65;;;13.30;99.90;;;;;;5055968;28;20045;-65
2022/09/08 05:18:37;;;;;;;6.10;0.82;;;13.40;99.90;;;;;;5056307;28;20133;-65
2022/09/08 05:21:04;;;;;;;6.28;1.17;;;13.40;99.90;;;;;;5056202;28;20048;-65
2022/09/08 05:23:30;;;;;;;1.83;0.80;;;13.30;99.90;;;;;;5054695;28;20420;-65
2022/09/08 05:26:01;;;;;;;1.15;0.70;;;13.30;99.90;;;;;;5055227;28;20044;-65
2022/09/08 05:28:29;;;;;;;1.40;0.80;;;13.40;99.90;;;;;;5054401;28;20047;-67
2022/09/08 05:30:56;;;;;;;0.90;0.60;;;13.40;99.90;;;;;;5056070;28;20403;-70
2022/09/08 05:33:23;;;;;;;1.17;0.70;;;13.50;99.90;;;;;;5055926;28;20500;-65
2022/09/08 05:35:49;;;;;;;1.38;0.60;;;13.60;99.90;;;;;;5055716;28;20044;-66
2022/09/08 05:38:15;;;;;;;0.90;0.50;;;13.50;99.90;;;;;;5055761;28;20516;-65
2022/09/08 05:40:41;;;;;;;4.28;0.80;;;13.50;99.90;;;;;;5055810;28;20037;-66
2022/09/08 05:43:07;;;;;;;2.35;0.95;;;13.60;99.90;;;;;;5055819;28;20052;-65
2022/09/08 05:45:33;;;;;;;2.13;0.88;;;13.70;99.90;;;;;;5054393;28;20401;-65
2022/09/08 05:48:00;;;;;;;2.03;0.85;;;13.80;99.90;;;;;;5055496;28;20127;-65
2022/09/08 05:50:25;;;;;;;0.90;0.75;;;13.90;99.90;;;;;;5054243;28;20491;-66
2022/09/08 05:52:51;;;;;;;1.90;0.70;;;13.90;99.90;;;;;;5055260;28;20556;-67
2022/09/08 05:55:17;;;;;;;2.35;0.70;;;13.90;99.90;;;;;;5055387;28;20048;-65
2022/09/08 05:57:43;;;;;;;2.90;1.17;;;13.80;99.90;;;;;;5055423;28;20079;-66
2022/09/08 06:00:10;;;;;;;3.13;1.10;;;13.80;99.90;;;;;;5055467;28;20501;-68
2022/09/08 06:02:37;;;;;;;1.52;0.80;;;14.10;99.90;;;;;;5055424;28;20091;-64
2022/09/08 06:05:03;;;;;;;2.97;0.93;;;14.40;99.90;;;;;;5055244;28;20439;-64
2022/09/08 06:07:31;;;;;;;2.60;1.00;;;14.70;99.90;;;;;;5055306;28;20033;-67
2022/09/08 06:09:56;;;;;;;1.25;0.80;;;14.70;99.90;;;;;;5047234;28;20094;-67
2022/09/08 06:12:22;;;;;;;1.48;0.80;;;14.80;99.90;;;;;;5034879;28;20033;-65
2022/09/08 06:14:49;;;;;;;2.85;0.90;;;14.90;99.90;;;;;;5034576;28;20382;-65
2022/09/08 06:17:15;;;;;;;12.77;1.48;;;14.70;99.90;;;;;;5033132;28;20128;-66
2022/09/08 06:19:40;;;;;;;11.13;1.25;;;14.40;99.90;;;;;;5032600;28;20084;-69
2022/09/08 06:22:06;;;;;;;13.15;1.50;;;14.30;99.90;;;;;;5033028;28;20684;-65
2022/09/08 06:24:32;;;;;;;21.25;2.25;;;14.30;99.90;;;;;;5033142;28;20049;-64
2022/09/08 06:27:35;;;;;;;17.02;1.65;;;14.50;99.90;;;;;;5031598;28;20041;-66
2022/09/08 06:30:10;;;;;;;7.13;1.60;;;14.70;99.90;;;;;;5030086;28;20041;-65
2022/09/08 06:33:00;;;;;;;1.50;1.10;;;14.80;99.90;;;;;;5034830;28;20431;-65
2022/09/08 06:35:39;;;;;;;1.65;1.00;;;15.30;99.90;;;;;;5034257;28;20037;-66
2022/09/08 06:38:10;;;;;;;4.13;1.02;;;15.60;99.90;;;;;;5034623;28;20048;-65
2022/09/08 06:40:45;;;;;;;1.95;1.05;;;15.60;99.90;;;;;;5034640;28;20049;-65
2022/09/08 06:43:22;;;;;;;3.75;1.40;;;15.90;99.90;;;;;;5034763;28;20037;-64
2022/09/08 06:45:56;;;;;;;1.40;1.30;;;15.70;99.90;;;;;;5034623;28;20041;-67
2022/09/08 06:48:31;;;;;;;3.58;1.50;;;15.40;99.90;;;;;;5034536;28;20042;-69
2022/09/08 06:51:24;;;;;;;3.55;1.10;;;15.40;99.90;;;;;;5038080;28;20124;-65
2022/09/08 06:54:19;;;;;;;2.15;1.10;;;15.60;99.90;;;;;;5053886;28;20052;-65
2022/09/08 06:57:03;;;;;;;2.35;1.10;;;16.20;99.90;;;;;;5049522;28;20565;-65
2022/09/08 06:59:38;;;;;;;2.03;0.85;;;16.70;99.90;;;;;;5053451;28;20037;-65
2022/09/08 07:02:15;;;;;;;4.82;0.75;;;17.40;99.90;;;;;;5054108;28;20072;-65
2022/09/08 07:05:02;;;;;;;4.57;0.77;;;17.80;99.90;;;;;;5054307;28;20060;-65
2022/09/08 07:07:27;;;;;;;2.13;0.77;;;18.10;99.90;;;;;;5054270;28;20400;-65
2022/09/08 07:09:56;;;;;;;3.78;1.20;;;18.30;99.90;;;;;;5052769;28;20037;-64
2022/09/08 07:12:40;;;;;;;3.22;0.60;;;18.50;99.90;;;;;;5054093;28;20032;-64
2022/09/08 07:15:06;;;;;;;1.35;0.82;;;18.60;99.90;;;;;;5037035;28;20392;-64
2022/09/08 07:17:56;;;;;;;1.08;0.75;;;18.70;99.90;;;;;;5033963;28;20136;-64
2022/09/08 07:20:26;;;;;;;0.55;0.47;;;19.10;99.90;;;;;;5033924;28;20124;-65
2022/09/08 07:23:00;;;;;;;1.02;0.55;;;19.00;99.90;;;;;;5034102;28;20053;-64
2022/09/08 07:25:40;;;;;;;1.15;0.70;;;18.50;99.90;;;;;;5032684;28;20048;-65
2022/09/08 07:28:14;;;;;;;1.73;0.82;;;18.10;99.90;;;;;;5050784;28;20045;-64
2022/09/08 07:30:41;;;;;;;2.28;0.65;;;18.40;99.90;;;;;;5040055;28;20045;-65
2022/09/08 07:33:27;;;;;;;0.77;0.70;;;18.80;99.90;;;;;;5033880;28;20124;-65
2022/09/08 07:36:31;;;;;;;1.80;0.60;;;19.10;99.90;;;;;;5033723;28;20060;-65
2022/09/08 07:39:09;;;;;;;0.95;0.52;;;19.20;99.90;;;;;;5033756;28;20095;-64
2022/09/08 07:41:54;;;;;;;1.80;0.63;;;18.80;99.90;;;;;;5033869;28;20038;-65
2022/09/08 07:44:21;;;;;;;2.78;0.98;;;18.70;99.90;;;;;;5033771;28;20042;-65
2022/09/08 07:47:38;;;;;;;1.65;0.60;;;19.00;99.90;;;;;;5033794;28;20042;-66
2022/09/08 07:50:54;;;;;;;2.47;0.60;;;19.10;99.90;;;;;;4972721;28;20044;-67
2022/09/08 07:53:45;;;;;;;5.03;0.73;;;19.10;99.90;;;;;;5002588;28;20041;-65
2022/09/08 07:56:42;;;;;;;1.45;0.70;;;19.40;99.90;;;;;;5033727;28;20048;-66
2022/09/08 07:59:13;;;;;;;1.75;0.57;;;19.40;99.90;;;;;;5032540;28;20041;-66
2022/09/08 08:02:00;;;;;;;2.33;0.60;;;;;;;;;;5033778;28;20045;-66
2022/09/08 08:04:38;;;;;;;1.65;0.40;;;19.90;99.90;;;;;;5033797;28;20112;-66
2022/09/08 08:07:15;;;;;;;1.02;0.60;;;20.20;99.90;;;;;;5033759;28;20493;-65
2022/09/08 08:09:58;;;;;;;2.00;0.47;;;20.50;99.90;;;;;;5033702;28;20037;-66
2022/09/08 08:12:42;;;;;;;1.50;0.57;;;20.70;99.90;;;;;;5032227;28;20095;-67
2022/09/08 08:15:21;;;;;;;2.22;0.60;;;20.50;99.90;;;;;;5033526;28;20510;-65
2022/09/08 08:18:08;;;;;;;2.00;0.60;;;20.10;99.90;;;;;;5033631;28;20045;-66
2022/09/08 08:20:47;;;;;;;2.58;0.50;;;20.40;99.90;;;;;;5033617;28;20456;-66
2022/09/08 08:23:19;;;;;;;2.15;0.82;;;20.60;99.90;;;;;;5033457;28;20041;-66
2022/09/08 08:25:58;;;;;;;3.60;0.68;;;20.70;99.90;;;;;;5032139;28;20120;-65
2022/09/08 08:28:24;;;;;;;4.00;0.50;;;21.00;99.90;;;;;;5032023;28;20045;-66
2022/09/08 08:31:09;;;;;;;1.85;0.63;;;21.10;99.90;;;;;;5033231;28;20056;-66
2022/09/08 08:33:42;;;;;;;4.95;0.77;;;21.30;99.90;;;;;;5033424;28;20049;-65
2022/09/08 08:36:15;;;;;;;1.23;0.50;;;21.40;99.90;;;;;;5033226;28;20444;-66
2022/09/08 08:38:48;;;;;;;4.68;0.80;;;21.30;99.90;;;;;;5033048;28;20037;-66
2022/09/08 08:41:52;;;;;;;0.90;0.50;;;21.30;99.90;;;;;;5033044;28;20045;-65
2022/09/08 08:44:29;;;;;;;1.90;0.85;;;21.20;99.90;;;;;;5038057;28;20131;-66
2022/09/08 08:47:28;;;;;;;3.22;0.82;;;21.90;99.90;;;;;;5036892;28;20048;-66
2022/09/08 08:50:23;;;;;;;2.40;0.57;;;;;;;;;;5036828;28;20033;-66
2022/09/08 08:53:00;;;;;;;3.15;0.60;;;21.20;99.90;;;;;;5036848;28;20091;-65
2022/09/08 08:55:52;;;;;;;9.00;6.35;;;21.20;99.90;;;;;;5036501;28;20033;-66
2022/09/08 08:58:44;;;;;;;5.93;1.10;;;21.30;99.90;;;;;;5030016;28;20472;-65
2022/09/08 09:01:15;;;;;;;6.30;1.00;;;21.30;99.90;;;;;;5036562;28;20072;-65
2022/09/08 09:03:54;;;;;;;1.45;0.77;;;21.30;99.90;;;;;;5036556;28;20049;-65
2022/09/08 09:06:57;;;;;;;1.95;0.65;;;21.40;99.90;;;;;;5056169;28;20052;-65
2022/09/08 09:09:41;;;;;;;3.38;1.23;;;21.80;99.90;;;;;;5055487;28;20037;-65
2022/09/08 09:12:25;;;;;;;2.60;0.70;;;21.70;99.90;;;;;;5056703;28;20061;-65
2022/09/08 09:15:23;;;;;;;3.33;0.88;;;21.70;99.90;;;;;;5056279;28;20037;-65
2022/09/08 09:18:07;;;;;;;1.67;0.60;;;22.20;99.90;;;;;;5055783;28;20060;-65
2022/09/08 09:20:57;;;;;;;2.67;0.95;;;21.50;99.90;;;;;;5056095;28;20029;-65
2022/09/08 09:23:42;;;;;;;2.30;0.60;;;21.80;99.90;;;;;;5056017;28;20126;-66
2022/09/08 09:26:20;;;;;;;4.10;0.70;;;21.90;99.90;;;;;;5054717;28;20612;-65
2022/09/08 09:29:14;;;;;;;2.22;0.93;;;21.90;99.90;;;;;;5055980;28;20045;-65
2022/09/08 09:32:01;;;;;;;2.60;0.50;;;22.10;99.90;;;;;;5054701;28;20040;-65
2022/09/08 09:34:39;;;;;;;1.27;0.65;;;22.20;99.90;;;;;;5056034;28;20045;-65
2022/09/08 09:37:26;;;;;;;2.83;0.75;;;22.40;99.90;;;;;;5055634;28;20052;-66
2022/09/08 09:40:27;;;;;;;1.92;1.20;;;22.20;99.90;;;;;;5046462;28;20048;-64
2022/09/08 09:42:59;;;;;;;2.20;0.82;;;22.40;99.90;;;;;;5055504;28;20032;-64
2022/09/08 09:45:38;;;;;;;1.52;0.68;;;22.70;99.90;;;;;;5055452;28;20404;-64
2022/09/08 09:48:42;;;;;;;2.42;0.60;;;22.30;99.90;;;;;;5047446;28;20037;-64
2022/09/08 09:51:26;;;;;;;1.13;0.40;;;22.20;99.90;;;;;;5035576;28;20432;-66
2022/09/08 09:53:52;;;;;;;4.45;0.68;;;22.40;99.90;;;;;;5035688;28;20044;-64
2022/09/08 09:56:37;;;;;;;0.82;0.55;;;22.30;99.90;;;;;;5035474;28;20049;-64
2022/09/08 09:59:26;;;;;;;2.25;0.93;;;22.10;99.90;;;;;;5035383;28;20095;-63
2022/09/08 10:02:25;;;;;;;7.15;0.90;;;22.20;99.90;;;;;;5007180;28;20065;-64
2022/09/08 10:05:28;;;;;;;2.15;0.55;;;22.40;99.90;;;;;;5035412;28;20509;-65
2022/09/08 10:08:36;;;;;;;2.15;0.63;;;22.30;99.90;;;;;;5035268;28;20048;-64
2022/09/08 10:11:26;;;;;;;5.13;0.70;;;22.90;99.90;;;;;;5035008;28;20037;-64
2022/09/08 10:14:08;;;;;;;2.58;0.43;;;22.70;99.90;;;;;;5035297;28;20045;-65
2022/09/08 10:16:53;;;;;;;0.88;0.60;;;23.10;99.90;;;;;;5035194;28;20053;-65
2022/09/08 10:19:56;;;;;;;3.33;0.93;;;23.30;99.90;;;;;;5053300;28;20068;-64
2022/09/08 10:22:46;;;;;;;1.55;0.50;;;23.40;99.90;;;;;;5049176;28;20045;-65
2022/09/08 10:25:31;;;;;;;1.77;0.50;;;23.10;99.90;;;;;;5045146;28;20041;-65
2022/09/08 10:28:08;;;;;;;2.35;0.50;;;23.40;99.90;;;;;;5036631;28;20520;-64
2022/09/08 10:31:03;;;;;;;1.88;0.50;;;23.40;99.90;;;;;;5034836;28;20033;-64
2022/09/08 10:33:50;;;;;;;2.75;0.82;;;23.70;99.90;;;;;;5052185;28;20029;-64
2022/09/08 10:36:16;;;;;;;1.65;0.50;;;23.70;99.90;;;;;;5054464;28;20401;-64
2022/09/08 10:38:57;;;;;;;3.08;0.98;;;23.80;99.90;;;;;;5054786;28;20087;-64
2022/09/08 10:41:41;;;;;;;4.05;0.73;;;23.20;99.90;;;;;;5054346;28;20051;-64
2022/09/08 10:44:29;;;;;;;1.27;0.50;;;22.90;99.90;;;;;;5054378;28;20079;-63
2022/09/08 10:47:07;;;;;;;0.85;0.55;;;22.80;99.90;;;;;;5054515;28;20045;-63
2022/09/08 10:49:39;;;;;;;2.25;1.23;;;23.10;99.90;;;;;;5054345;28;20459;-64
2022/09/08 10:52:30;;;;;;;1.08;0.60;;;23.40;99.90;;;;;;5069839;28;20384;-64
2022/09/08 10:55:34;;;;;;;3.20;0.75;;;23.70;99.90;;;;;;5054336;28;20076;-63
2022/09/08 10:58:30;;;;;;;1.38;0.60;;;24.10;99.90;;;;;;5054220;28;20045;-64
2022/09/08 11:01:08;;;;;;;0.98;0.85;;;23.80;99.90;;;;;;5053751;28;20076;-63
2022/09/08 11:03:57;;;;;;;2.28;0.60;;;23.80;99.00;;;;;;5054439;28;20036;-64
2022/09/08 11:06:41;;;;;;;1.02;0.57;;;23.60;98.10;;;;;;5054155;28;20175;-64
2022/09/08 11:09:31;;;;;;;3.65;0.45;;;23.60;97.90;;;;;;5054349;28;20040;-64
2022/09/08 11:12:16;;;;;;;1.13;0.50;;;23.60;98.10;;;;;;5054290;28;20037;-64
2022/09/08 11:15:06;;;;;;;1.40;0.50;;;23.50;97.60;;;;;;5054195;28;20033;-64
2022/09/08 11:17:54;;;;;;;2.92;0.50;;;23.50;97.40;;;;;;5048213;28;20087;-64
2022/09/08 11:20:30;;;;;;;0.22;0.13;;;23.30;96.90;;;;;;5052667;28;20037;-62
2022/09/08 11:23:23;;;;;;;0.50;0.40;;;23.40;95.40;;;;;;5052419;28;20404;-64
2022/09/08 11:26:19;;;;;;;2.20;0.50;;;23.60;98.30;;;;;;5051795;28;20044;-64
2022/09/08 11:28:57;;;;;;;1.63;0.50;;;23.70;97.10;;;;;;5052116;28;20098;-63
2022/09/08 11:31:30;;;;;;;1.45;0.50;;;23.60;96.40;;;;;;5052899;28;20037;-63
2022/09/08 11:34:03;;;;;;;1.02;0.45;;;24.10;97.80;;;;;;5051761;28;20045;-63
2022/09/08 11:37:09;;;;;;;2.13;0.52;;;24.20;97.10;;;;;;5051411;28;20504;-64
2022/09/08 11:40:26;;;;;;;1.40;0.40;;;24.20;95.30;;;;;;5051711;28;20090;-64
2022/09/08 11:43:28;;;;;;;2.05;0.52;;;24.30;96.20;;;;;;5051300;28;20037;-63
2022/09/08 11:46:23;;;;;;;0.93;0.50;;;24.00;96.00;;;;;;5052445;28;20138;-65
2022/09/08 11:49:09;;;;;;;1.48;0.50;;;;;;;;;;5051342;28;20045;-64
2022/09/08 11:51:41;;;;;;;2.15;0.47;;;24.50;95.40;;;;;;5051368;28;20405;-63
2022/09/08 11:54:52;;;;;;;1.17;0.40;;;24.60;95.50;;;;;;5051162;28;20037;-64
2022/09/08 11:57:34;;;;;;;0.38;0.30;;;24.90;96.50;;;;;;5013938;28;20055;-64
2022/09/08 12:00:29;;;;;;;1.05;0.40;;;24.70;95.00;;;;;;5053334;28;20048;-64
2022/09/08 12:03:13;;;;;;;4.55;0.60;;;24.80;94.30;;;;;;5053280;28;20115;-64
2022/09/08 12:05:58;;;;;;;1.30;0.43;;;24.00;93.70;;;;;;5051438;28;20047;-64
2022/09/08 12:08:42;;;;;;;1.30;0.40;;;24.30;95.80;;;;;;5051533;28;20489;-64
2022/09/08 12:11:39;;;;;;;0.85;0.50;;;24.70;96.00;;;;;;5051330;28;20041;-64
2022/09/08 12:14:35;;;;;;;2.00;0.98;;;24.70;94.50;;;;;;5051199;28;20080;-64
2022/09/08 12:17:28;;;;;;;0.73;0.52;;;25.20;97.00;;;;;;5050902;28;20048;-64
2022/09/08 12:20:13;;;;;;;1.08;0.45;;;25.10;93.60;;;;;;5054866;28;20041;-64
2022/09/08 12:23:01;;;;;;;1.13;0.47;;;24.60;93.70;;;;;;5054981;28;20037;-64
2022/09/08 12:25:59;;;;;;;2.85;0.65;;;25.10;95.50;;;;;;5056368;28;20040;-65
2022/09/08 12:28:47;;;;;;;0.40;0.30;;;25.20;94.10;;;;;;5057014;28;20048;-64
2022/09/08 12:31:34;;;;;;;0.40;0.30;;;25.00;94.90;;;;;;5054944;28;20033;-64
2022/09/08 12:34:22;;;;;;;0.68;0.30;;;25.20;94.30;;;;;;5054871;28;20210;-63
2022/09/08 12:36:55;;;;;;;1.15;0.70;;;25.30;94.30;;;;;;5054515;28;20056;-64
2022/09/08 12:39:38;;;;;;;3.33;0.57;;;25.00;93.90;;;;;;5055272;28;20033;-63
2022/09/08 12:42:25;;;;;;;1.10;0.50;;;24.70;94.00;;;;;;5055402;28;20045;-63
2022/09/08 12:44:54;;;;;;;2.25;0.80;;;24.70;93.00;;;;;;5054731;28;20484;-64
2022/09/08 12:47:45;;;;;;;0.98;0.38;;;24.70;92.00;;;;;;5053282;28;20033;-63
2022/09/08 12:50:20;;;;;;;;;;;24.50;92.40;;;;;;5054688;28;20036;-64
2022/09/08 12:52:54;;;;;;;1.00;0.55;;;24.60;92.40;;;;;;5055317;28;19913;-64
2022/09/08 12:55:39;;;;;;;1.35;0.40;;;24.70;93.00;;;;;;5054834;28;20071;-63
2022/09/08 12:58:06;;;;;;;5.90;0.90;;;24.80;91.70;;;;;;5054215;28;20041;-63
2022/09/08 13:00:50;;;;;;;2.85;0.40;;;24.60;92.90;;;;;;5054117;28;20400;-64
2022/09/08 13:03:28;;;;;;;2.40;0.47;;;24.80;92.90;;;;;;5054437;28;20459;-67
2022/09/08 13:06:07;;;;;;;1.13;0.30;;;24.60;92.70;;;;;;5054372;28;20033;-66
2022/09/08 13:08:44;;;;;;;0.82;0.40;;;24.90;93.00;;;;;;5054483;28;20418;-64
2022/09/08 13:11:28;;;;;;;2.75;0.95;;;25.00;92.60;;;;;;5054146;28;20043;-63
2022/09/08 13:14:00;;;;;;;0.60;0.30;;;25.20;93.20;;;;;;5055735;28;20504;-64
2022/09/08 13:16:44;;;;;;;2.72;1.33;;;25.10;92.20;;;;;;5055633;28;20053;-63
2022/09/08 13:19:28;;;;;;;3.47;0.60;;;25.00;92.30;;;;;;5053349;28;20404;-65
2022/09/08 13:22:09;;;;;;;0.30;0.30;;;24.90;92.00;;;;;;5051441;28;20569;-64
2022/09/08 13:24:42;;;;;;;1.88;0.50;;;24.90;90.60;;;;;;5036120;28;20041;-64
2022/09/08 13:27:45;;;;;;;3.13;0.45;;;24.70;91.30;;;;;;5043311;28;20041;-64
2022/09/08 13:30:27;;;;;;;2.63;0.32;;;24.60;91.80;;;;;;5051402;28;20037;-64
2022/09/08 13:33:17;;;;;;;1.92;0.40;;;24.90;92.80;;;;;;5034474;28;20042;-64
2022/09/08 13:35:49;;;;;;;0.90;0.47;;;24.50;91.40;;;;;;5033942;28;20049;-64
2022/09/08 13:38:34;;;;;;;1.35;0.20;;;24.90;91.70;;;;;;5033495;28;20405;-64
2022/09/08 13:41:36;;;;;;;7.78;0.50;;;25.10;92.90;;;;;;5040859;28;20049;-63